createdAt,value
2023-03-01T00:01:50.126Z,76.40
2023-03-01T00:04:18.722Z,76.40
2023-03-01T00:06:47.590Z,77.60
2023-03-01T00:09:16.710Z,77.90
2023-03-01T00:11:46.752Z,77.60
2023-03-01T00:14:17.257Z,77.70
2023-03-01T00:16:47.559Z,78.30
2023-03-01T00:19:20.756Z,78.40
2023-03-01T00:21:49.245Z,77.70
2023-03-01T00:24:18.070Z,77.70
2023-03-01T00:26:47.849Z,77.90
2023-03-01T00:29:16.184Z,77.30
2023-03-01T00:31:44.749Z,77.30
2023-03-01T00:34:13.007Z,77.50
2023-03-01T00:36:41.336Z,77.50
2023-03-01T00:39:15.498Z,77.40
2023-03-01T00:41:48.056Z,77.00
2023-03-01T00:44:16.262Z,77.80
2023-03-01T00:46:44.571Z,77.90
2023-03-01T00:49:12.838Z,78.40
2023-03-01T00:51:42.465Z,78.70
2023-03-01T00:54:11.499Z,78.90
2023-03-01T00:56:39.893Z,78.70
2023-03-01T00:59:09.545Z,78.20
2023-03-01T01:01:37.914Z,78.30
2023-03-01T01:04:09.379Z,78.30
2023-03-01T01:06:40.751Z,78.30
2023-03-01T01:09:10.420Z,77.60
2023-03-01T01:11:39.124Z,77.70
2023-03-01T01:14:07.659Z,77.60
2023-03-01T01:16:37.745Z,78.00
2023-03-01T01:19:06.330Z,77.60
2023-03-01T01:21:34.675Z,77.60
2023-03-01T01:24:06.313Z,77.70
2023-03-01T01:26:36.283Z,78.10
2023-03-01T01:29:06.922Z,78.50
2023-03-01T01:31:38.794Z,78.60
2023-03-01T01:34:10.273Z,78.70
2023-03-01T01:36:38.672Z,78.60
2023-03-01T01:39:07.241Z,78.90
2023-03-01T01:41:35.853Z,78.90
2023-03-01T01:44:17.887Z,78.60
2023-03-01T01:46:51.714Z,78.40
2023-03-01T01:49:30.829Z,78.80
2023-03-01T01:52:07.935Z,78.90
2023-03-01T01:54:44.352Z,78.90
2023-03-01T01:57:20.693Z,79.10
2023-03-01T01:59:55.062Z,79.10
2023-03-01T02:02:25.148Z,79.40
2023-03-01T02:05:05.009Z,79.50
2023-03-01T02:07:33.820Z,79.00
2023-03-01T02:10:02.572Z,78.30
2023-03-01T02:12:31.779Z,78.10
2023-03-01T02:15:00.174Z,78.10
2023-03-01T02:17:29.853Z,78.40
2023-03-01T02:20:17.036Z,79.00
2023-03-01T02:22:47.593Z,79.20
2023-03-01T02:25:31.845Z,79.00
2023-03-01T02:28:09.776Z,79.20
2023-03-01T02:30:59.488Z,78.90
2023-03-01T02:33:27.592Z,78.60
2023-03-01T02:35:57.349Z,79.20
2023-03-01T02:38:26.314Z,78.80
2023-03-01T02:40:56.031Z,78.70
2023-03-01T02:43:29.929Z,79.20
2023-03-01T02:46:01.729Z,79.00
2023-03-01T02:48:29.980Z,79.10
2023-03-01T02:51:13.878Z,79.70
2023-03-01T02:53:51.953Z,79.60
2023-03-01T02:56:20.522Z,79.90
2023-03-01T02:58:52.542Z,79.90
2023-03-01T03:01:22.732Z,79.70
2023-03-01T03:03:51.096Z,79.60
2023-03-01T03:06:19.369Z,79.60
2023-03-01T03:08:47.716Z,79.70
2023-03-01T03:11:16.213Z,79.90
2023-03-01T03:13:49.104Z,80.20
2023-03-01T03:16:17.717Z,80.10
2023-03-01T03:18:47.548Z,79.90
2023-03-01T03:21:17.269Z,80.00
2023-03-01T03:23:46.053Z,80.20
2023-03-01T03:26:16.242Z,79.90
2023-03-01T03:28:44.640Z,79.90
2023-03-01T03:31:13.032Z,79.50
2023-03-01T03:33:41.315Z,79.30
2023-03-01T03:36:13.837Z,79.40
2023-03-01T03:38:42.658Z,79.60
2023-03-01T03:41:11.092Z,79.90
2023-03-01T03:43:43.571Z,79.80
2023-03-01T03:46:13.386Z,79.90
2023-03-01T03:48:44.869Z,80.00
2023-03-01T03:51:16.140Z,80.30
2023-03-01T03:53:45.353Z,80.10
2023-03-01T03:56:14.221Z,80.00
2023-03-01T03:58:42.688Z,80.30
2023-03-01T04:01:10.951Z,80.20
2023-03-01T04:03:39.222Z,80.10
2023-03-01T04:06:08.307Z,80.10
2023-03-01T04:08:38.000Z,80.30
2023-03-01T04:11:21.524Z,80.10
2023-03-01T04:13:50.200Z,79.80
2023-03-01T04:16:18.684Z,80.10
2023-03-01T04:18:47.632Z,80.10
2023-03-01T04:21:16.007Z,80.10
2023-03-01T04:23:45.797Z,80.20
2023-03-01T04:26:14.085Z,80.20
2023-03-01T04:28:46.307Z,80.20
2023-03-01T04:31:18.401Z,80.00
2023-03-01T04:33:49.912Z,80.20
2023-03-01T04:36:19.474Z,80.10
2023-03-01T04:38:49.407Z,80.10
2023-03-01T04:41:20.750Z,80.30
2023-03-01T04:43:50.372Z,80.30
2023-03-01T04:46:21.895Z,80.40
2023-03-01T04:48:51.404Z,80.40
2023-03-01T04:51:19.799Z,80.50
2023-03-01T04:53:49.890Z,80.50
2023-03-01T04:56:19.025Z,80.50
2023-03-01T04:58:48.349Z,80.30
2023-03-01T05:01:20.344Z,80.50
2023-03-01T05:03:51.049Z,80.40
2023-03-01T05:06:21.436Z,80.50
2023-03-01T05:08:51.144Z,80.40
2023-03-01T05:11:19.401Z,80.40
2023-03-01T05:13:47.821Z,80.40
2023-03-01T05:16:16.239Z,80.40
2023-03-01T05:18:45.190Z,80.50
2023-03-01T05:21:17.690Z,80.50
2023-03-01T05:23:47.877Z,80.40
2023-03-01T05:26:28.332Z,80.20
2023-03-01T05:28:59.758Z,80.40
2023-03-01T05:31:28.925Z,80.30
2023-03-01T05:33:57.210Z,80.20
2023-03-01T05:36:25.635Z,80.30
2023-03-01T05:38:53.957Z,80.30
2023-03-01T05:41:23.665Z,80.30
2023-03-01T05:43:52.052Z,80.30
2023-03-01T05:46:20.360Z,80.20
2023-03-01T05:48:49.357Z,80.30
2023-03-01T05:51:18.577Z,80.40
2023-03-01T05:53:46.835Z,80.40
2023-03-01T05:56:15.148Z,80.40
2023-03-01T05:58:44.875Z,80.60
2023-03-01T06:01:15.127Z,80.60
2023-03-01T06:03:43.494Z,80.70
2023-03-01T06:06:11.830Z,80.80
2023-03-01T06:08:40.110Z,80.60
2023-03-01T06:11:08.694Z,80.60
2023-03-01T06:13:37.441Z,80.70
2023-03-01T06:16:09.765Z,80.70
2023-03-01T06:18:38.576Z,80.40
2023-03-01T06:21:07.804Z,80.20
2023-03-01T06:23:36.985Z,80.40
2023-03-01T06:26:09.358Z,80.20
2023-03-01T06:28:38.035Z,80.50
2023-03-01T06:31:09.959Z,80.60
2023-03-01T06:33:38.482Z,80.70
2023-03-01T06:36:08.029Z,80.80
2023-03-01T06:38:36.496Z,80.80
2023-03-01T06:41:05.000Z,80.60
2023-03-01T06:43:33.449Z,80.80
2023-03-01T06:46:02.130Z,80.70
2023-03-01T06:48:32.029Z,80.30
2023-03-01T06:51:01.616Z,80.20
2023-03-01T06:53:30.187Z,80.30
2023-03-01T06:56:00.167Z,80.10
2023-03-01T06:58:28.880Z,80.80
2023-03-01T07:00:57.154Z,80.90
2023-03-01T07:03:25.417Z,80.80
2023-03-01T07:05:55.074Z,81.40
2023-03-01T07:08:23.864Z,81.20
2023-03-01T07:10:58.052Z,81.20
2023-03-01T07:13:26.710Z,81.20
2023-03-01T07:15:55.088Z,81.10
2023-03-01T07:18:23.430Z,80.90
2023-03-01T07:20:52.145Z,81.00
2023-03-01T07:23:21.833Z,80.80
2023-03-01T07:25:55.170Z,80.40
2023-03-01T07:28:25.534Z,80.40
2023-03-01T07:30:54.290Z,80.30
2023-03-01T07:33:22.766Z,80.40
2023-03-01T07:35:51.116Z,80.10
2023-03-01T07:38:19.400Z,80.00
2023-03-01T07:40:49.062Z,79.80
2023-03-01T07:43:17.361Z,79.70
2023-03-01T07:45:46.154Z,79.80
2023-03-01T07:48:14.393Z,79.60
2023-03-01T07:50:43.078Z,79.60
2023-03-01T07:53:11.751Z,79.40
2023-03-01T07:55:40.219Z,79.50
2023-03-01T07:58:09.946Z,79.30
2023-03-01T08:00:38.289Z,79.30
2023-03-01T08:03:06.692Z,79.10
2023-03-01T08:05:35.023Z,78.90
2023-03-01T08:08:03.457Z,78.70
2023-03-01T08:10:31.746Z,78.60
2023-03-01T08:13:00.011Z,78.50
2023-03-01T08:15:29.666Z,78.30
2023-03-01T08:17:57.964Z,77.40
2023-03-01T08:20:26.271Z,77.00
2023-03-01T08:22:54.629Z,76.50
2023-03-01T08:25:22.934Z,75.80
2023-03-01T08:27:51.146Z,75.20
2023-03-01T08:30:20.149Z,74.70
2023-03-01T08:32:49.930Z,74.40
2023-03-01T08:35:18.605Z,73.80
2023-03-01T08:37:46.897Z,73.30
2023-03-01T08:40:16.146Z,72.60
2023-03-01T08:42:45.277Z,71.90
2023-03-01T08:45:15.243Z,72.10
2023-03-01T08:47:43.564Z,70.90
2023-03-01T08:50:13.726Z,70.60
2023-03-01T08:52:42.050Z,69.30
2023-03-01T08:55:11.483Z,69.60
2023-03-01T08:57:39.743Z,68.70
2023-03-01T09:00:10.580Z,68.90
2023-03-01T09:02:39.787Z,68.50
2023-03-01T09:05:08.902Z,67.40
2023-03-01T09:07:38.527Z,66.70
2023-03-01T09:10:08.233Z,66.70
2023-03-01T09:12:36.585Z,65.70
2023-03-01T09:15:05.745Z,66.00
2023-03-01T09:17:33.967Z,63.80
2023-03-01T09:20:02.246Z,63.80
2023-03-01T09:22:30.503Z,64.00
2023-03-01T09:25:00.135Z,63.70
2023-03-01T09:27:28.575Z,62.50
2023-03-01T09:29:57.275Z,63.40
2023-03-01T09:32:25.645Z,61.90
2023-03-01T09:35:05.513Z,62.00
2023-03-01T09:37:35.573Z,61.70
2023-03-01T09:40:07.432Z,61.70
2023-03-01T09:42:38.286Z,61.80
2023-03-01T09:45:08.403Z,60.70
2023-03-01T09:47:38.202Z,61.20
2023-03-01T09:50:13.448Z,60.20
2023-03-01T09:52:44.728Z,59.90
2023-03-01T09:55:17.220Z,59.50
2023-03-01T09:57:52.784Z,59.10
2023-03-01T10:00:37.736Z,59.10
2023-03-01T10:03:17.949Z,57.40
2023-03-01T10:06:01.258Z,57.50
2023-03-01T10:08:39.939Z,57.20
2023-03-01T10:11:25.333Z,57.20
2023-03-01T10:14:01.125Z,56.80
2023-03-01T10:16:39.369Z,57.00
2023-03-01T10:19:14.765Z,56.00
2023-03-01T10:21:47.783Z,56.20
2023-03-01T10:24:20.985Z,54.70
2023-03-01T10:26:57.594Z,54.90
2023-03-01T10:29:32.891Z,54.60
2023-03-01T10:32:01.326Z,52.40
2023-03-01T10:34:33.129Z,50.60
2023-03-01T10:37:13.505Z,50.50
2023-03-01T10:40:00.252Z,50.30
2023-03-01T10:42:32.770Z,49.10
2023-03-01T10:45:17.770Z,49.40
2023-03-01T10:47:46.409Z,49.40
2023-03-01T10:50:23.190Z,49.70
2023-03-01T10:53:01.617Z,49.70
2023-03-01T10:55:37.157Z,49.50
2023-03-01T10:58:21.733Z,49.40
2023-03-01T11:00:53.726Z,49.80
2023-03-01T11:03:26.015Z,49.10
2023-03-01T11:06:02.645Z,47.50
2023-03-01T11:08:42.100Z,47.40
2023-03-01T11:11:33.773Z,46.60
2023-03-01T11:14:25.043Z,47.60
2023-03-01T11:17:03.137Z,46.50
2023-03-01T11:19:31.545Z,45.60
2023-03-01T11:22:05.437Z,45.50
2023-03-01T11:24:43.194Z,45.50
2023-03-01T11:27:21.874Z,45.20
2023-03-01T11:29:59.377Z,44.00
2023-03-01T11:32:33.407Z,45.10
2023-03-01T11:35:07.721Z,45.30
2023-03-01T11:37:42.094Z,46.20
2023-03-01T11:40:26.679Z,44.20
2023-03-01T11:43:07.480Z,43.70
2023-03-01T11:45:52.745Z,44.00
2023-03-01T11:48:49.408Z,43.40
2023-03-01T11:51:27.644Z,42.50
2023-03-01T11:54:21.970Z,43.40
2023-03-01T11:56:58.432Z,42.90
2023-03-01T12:00:09.703Z,42.10
2023-03-01T12:03:22.753Z,42.50
2023-03-01T12:06:08.021Z,43.30
2023-03-01T12:08:43.298Z,42.90
2023-03-01T12:11:28.133Z,42.20
2023-03-01T12:14:34.453Z,41.70
2023-03-01T12:17:31.637Z,41.90
2023-03-01T12:20:16.845Z,43.20
2023-03-01T12:23:20.896Z,43.40
2023-03-01T12:25:55.511Z,43.50
2023-03-01T12:28:54.229Z,43.90
2023-03-01T12:31:58.015Z,43.90
2023-03-01T12:35:05.218Z,44.80
2023-03-01T12:37:47.946Z,45.60
2023-03-01T12:40:41.599Z,45.30
2023-03-01T12:43:23.169Z,45.60
2023-03-01T12:46:09.042Z,45.60
2023-03-01T12:48:50.780Z,46.10
2023-03-01T12:51:26.638Z,45.00
2023-03-01T12:53:58.516Z,46.50
2023-03-01T12:56:30.890Z,47.00
2023-03-01T12:59:08.309Z,46.20
2023-03-01T13:01:45.504Z,46.00
2023-03-01T13:05:00.316Z,46.10
2023-03-01T13:07:38.048Z,47.80
2023-03-01T13:10:23.644Z,47.10
2023-03-01T13:13:10.906Z,46.50
2023-03-01T13:15:40.521Z,46.50
2023-03-01T13:18:34.507Z,45.80
2023-03-01T13:21:06.770Z,45.70
2023-03-01T13:23:39.676Z,47.20
2023-03-01T13:26:17.100Z,46.40
2023-03-01T13:29:03.319Z,46.10
2023-03-01T13:32:02.730Z,45.60
2023-03-01T13:34:54.744Z,45.00
2023-03-01T13:37:38.445Z,46.30
2023-03-01T13:41:01.007Z,45.70
2023-03-01T13:43:34.124Z,46.90
2023-03-01T13:46:10.722Z,46.20
2023-03-01T13:48:40.850Z,46.90
2023-03-01T13:51:13.167Z,46.80
2023-03-01T13:53:46.090Z,46.80
2023-03-01T13:56:19.683Z,46.60
2023-03-01T13:58:53.124Z,47.80
2023-03-01T14:01:29.390Z,46.00
2023-03-01T14:04:01.834Z,46.10
2023-03-01T14:06:32.752Z,46.50
2023-03-01T14:09:10.855Z,46.40
2023-03-01T14:12:25.520Z,46.10
2023-03-01T14:15:02.003Z,46.30
2023-03-01T14:18:06.875Z,45.80
2023-03-01T14:20:41.417Z,46.10
2023-03-01T14:23:15.372Z,45.60
2023-03-01T14:25:50.869Z,45.90
2023-03-01T14:28:23.890Z,46.10
2023-03-01T14:30:54.410Z,46.20
2023-03-01T14:33:26.656Z,46.10
2023-03-01T14:35:58.874Z,45.80
2023-03-01T14:38:35.814Z,45.60
2023-03-01T14:41:10.833Z,45.60
2023-03-01T14:43:44.753Z,45.90
2023-03-01T14:46:22.297Z,44.70
2023-03-01T14:48:53.338Z,45.40
2023-03-01T14:51:21.781Z,45.20
2023-03-01T14:53:51.488Z,45.60
2023-03-01T14:56:21.927Z,46.30
2023-03-01T14:58:56.104Z,46.70
2023-03-01T15:01:24.823Z,45.80
2023-03-01T15:03:53.708Z,46.50
2023-03-01T15:06:24.847Z,46.20
2023-03-01T15:08:54.428Z,46.10
2023-03-01T15:11:25.905Z,45.70
2023-03-01T15:13:56.197Z,46.60
2023-03-01T15:16:27.544Z,46.10
2023-03-01T15:18:58.159Z,46.20
2023-03-01T15:21:30.053Z,46.20
2023-03-01T15:24:04.639Z,46.00
2023-03-01T15:26:38.759Z,46.10
2023-03-01T15:29:19.259Z,46.20
2023-03-01T15:31:58.405Z,46.40
2023-03-01T15:34:30.230Z,47.00
2023-03-01T15:37:01.557Z,46.10
2023-03-01T15:39:40.247Z,46.70
2023-03-01T15:42:12.466Z,47.20
2023-03-01T15:44:46.930Z,47.10
2023-03-01T15:47:32.789Z,47.10
2023-03-01T15:50:02.752Z,47.70
2023-03-01T15:52:40.261Z,47.80
2023-03-01T15:55:18.884Z,47.30
2023-03-01T15:57:47.497Z,47.90
2023-03-01T16:00:19.367Z,48.20
2023-03-01T16:02:48.106Z,47.90
2023-03-01T16:05:24.182Z,47.90
2023-03-01T16:07:52.799Z,48.00
2023-03-01T16:10:21.707Z,48.20
2023-03-01T16:12:50.717Z,47.90
2023-03-01T16:15:24.161Z,48.50
2023-03-01T16:17:53.188Z,48.20
2023-03-01T16:20:28.532Z,48.40
2023-03-01T16:22:58.809Z,48.70
2023-03-01T16:25:27.072Z,48.20
2023-03-01T16:27:56.313Z,48.50
2023-03-01T16:30:26.048Z,49.00
2023-03-01T16:32:55.452Z,49.00
2023-03-01T16:35:24.595Z,49.60
2023-03-01T16:37:54.874Z,49.80
2023-03-01T16:40:26.938Z,49.90
2023-03-01T16:43:00.358Z,49.80
2023-03-01T16:45:36.122Z,49.70
2023-03-01T16:48:04.788Z,49.80
2023-03-01T16:50:33.099Z,49.70
2023-03-01T16:53:02.624Z,50.00
2023-03-01T16:55:31.096Z,50.10
2023-03-01T16:57:59.364Z,50.10
2023-03-01T17:00:29.211Z,50.60
2023-03-01T17:02:57.547Z,50.40
2023-03-01T17:05:26.872Z,50.60
2023-03-01T17:07:56.620Z,51.10
2023-03-01T17:10:24.963Z,51.60
2023-03-01T17:12:53.274Z,51.50
2023-03-01T17:15:21.620Z,52.10
2023-03-01T17:17:51.989Z,52.10
2023-03-01T17:20:21.020Z,51.70
2023-03-01T17:22:49.378Z,52.30
2023-03-01T17:25:17.696Z,52.30
2023-03-01T17:27:46.080Z,52.20
2023-03-01T17:30:16.370Z,52.50
2023-03-01T17:32:44.985Z,52.60
2023-03-01T17:35:14.909Z,52.70
2023-03-01T17:37:46.557Z,52.80
2023-03-01T17:40:15.755Z,53.00
2023-03-01T17:42:44.110Z,53.10
2023-03-01T17:45:13.133Z,53.80
2023-03-01T17:47:41.545Z,53.80
2023-03-01T17:50:12.377Z,53.90
2023-03-01T17:52:42.607Z,54.10
2023-03-01T17:55:12.290Z,54.40
2023-03-01T17:57:41.369Z,54.30
2023-03-01T18:00:13.686Z,54.90
2023-03-01T18:02:42.097Z,54.90
2023-03-01T18:05:11.388Z,54.90
2023-03-01T18:07:41.105Z,55.30
2023-03-01T18:10:11.083Z,55.20
2023-03-01T18:12:39.841Z,55.30
2023-03-01T18:15:10.153Z,55.60
2023-03-01T18:17:38.847Z,55.50
2023-03-01T18:20:09.548Z,55.60
2023-03-01T18:22:38.427Z,55.40
2023-03-01T18:25:09.192Z,55.80
2023-03-01T18:27:37.825Z,55.40
2023-03-01T18:30:08.940Z,55.60
2023-03-01T18:32:37.502Z,55.80
2023-03-01T18:35:07.106Z,55.80
2023-03-01T18:37:35.429Z,56.00
2023-03-01T18:40:04.672Z,56.80
2023-03-01T18:42:34.397Z,56.40
2023-03-01T18:45:02.715Z,56.70
2023-03-01T18:47:30.984Z,57.00
2023-03-01T18:49:59.330Z,57.80
2023-03-01T18:52:27.629Z,57.50
2023-03-01T18:54:56.572Z,58.00
2023-03-01T18:57:24.938Z,58.70
2023-03-01T18:59:54.574Z,58.00
2023-03-01T19:02:22.842Z,58.90
2023-03-01T19:04:51.714Z,58.80
2023-03-01T19:07:20.490Z,59.00
2023-03-01T19:09:49.035Z,59.30
2023-03-01T19:12:17.339Z,58.60
2023-03-01T19:14:45.638Z,59.20
2023-03-01T19:17:15.839Z,58.90
2023-03-01T19:19:44.157Z,58.90
2023-03-01T19:22:12.435Z,59.20
2023-03-01T19:24:40.804Z,59.30
2023-03-01T19:27:09.108Z,59.40
2023-03-01T19:29:37.378Z,59.50
2023-03-01T19:32:06.091Z,59.10
2023-03-01T19:34:37.124Z,59.80
2023-03-01T19:37:06.027Z,59.80
2023-03-01T19:39:34.394Z,59.90
2023-03-01T19:42:02.753Z,59.90
2023-03-01T19:44:32.455Z,60.00
2023-03-01T19:47:00.754Z,60.30
2023-03-01T19:49:30.241Z,60.10
2023-03-01T19:51:59.985Z,60.60
2023-03-01T19:54:28.355Z,60.90
2023-03-01T19:56:56.904Z,60.40
2023-03-01T19:59:25.580Z,60.90
2023-03-01T20:01:54.048Z,60.20
2023-03-01T20:04:22.407Z,60.70
2023-03-01T20:06:50.783Z,60.40
2023-03-01T20:09:22.266Z,60.20
2023-03-01T20:11:51.582Z,60.40
2023-03-01T20:14:23.345Z,60.20
2023-03-01T20:16:53.248Z,60.30
2023-03-01T20:19:22.125Z,60.70
2023-03-01T20:21:50.490Z,60.50
2023-03-01T20:24:20.486Z,60.70
2023-03-01T20:26:48.796Z,61.00
2023-03-01T20:29:17.164Z,60.90
2023-03-01T20:31:45.483Z,60.80
2023-03-01T20:34:13.826Z,61.40
2023-03-01T20:36:44.249Z,61.60
2023-03-01T20:39:13.012Z,61.60
2023-03-01T20:41:42.905Z,61.40
2023-03-01T20:44:11.399Z,61.80
2023-03-01T20:46:39.938Z,61.90
2023-03-01T20:49:08.423Z,61.70
2023-03-01T20:51:36.822Z,62.20
2023-03-01T20:54:05.489Z,61.80
2023-03-01T20:56:34.276Z,62.40
2023-03-01T20:59:05.405Z,62.10
2023-03-01T21:01:34.104Z,62.70
2023-03-01T21:04:02.512Z,63.00
2023-03-01T21:06:31.419Z,63.00
2023-03-01T21:09:00.078Z,63.50
2023-03-01T21:11:28.515Z,63.60
2023-03-01T21:13:57.764Z,64.00
2023-03-01T21:16:28.195Z,63.90
2023-03-01T21:18:56.503Z,64.50
2023-03-01T21:21:25.421Z,63.80
2023-03-01T21:23:55.331Z,64.40
2023-03-01T21:26:25.866Z,64.20
2023-03-01T21:28:58.625Z,64.30
2023-03-01T21:31:32.114Z,64.50
2023-03-01T21:34:04.110Z,64.70
2023-03-01T21:36:33.547Z,65.10
2023-03-01T21:39:02.756Z,65.10
2023-03-01T21:41:34.914Z,65.40
2023-03-01T21:44:04.895Z,65.00
2023-03-01T21:46:37.592Z,64.80
2023-03-01T21:49:07.237Z,65.00
2023-03-01T21:51:36.976Z,64.80
2023-03-01T21:54:05.753Z,65.00
2023-03-01T21:56:39.092Z,64.80
2023-03-01T21:59:10.086Z,65.20
2023-03-01T22:01:40.411Z,65.10
2023-03-01T22:04:08.732Z,65.60
2023-03-01T22:06:40.818Z,65.40
2023-03-01T22:09:13.792Z,65.30
2023-03-01T22:11:45.087Z,65.40
2023-03-01T22:14:14.447Z,65.50
2023-03-01T22:16:46.752Z,65.20
2023-03-01T22:19:17.490Z,65.70
2023-03-01T22:21:49.883Z,65.80
2023-03-01T22:24:20.484Z,66.00
2023-03-01T22:26:51.675Z,65.80
2023-03-01T22:29:23.403Z,65.80
2023-03-01T22:31:54.327Z,66.10
2023-03-01T22:34:23.539Z,66.20
2023-03-01T22:36:52.625Z,66.80
2023-03-01T22:39:22.373Z,66.90
2023-03-01T22:41:51.393Z,66.70
2023-03-01T22:44:23.016Z,66.80
2023-03-01T22:46:53.442Z,66.90
2023-03-01T22:49:22.416Z,67.10
2023-03-01T22:51:51.503Z,67.30
2023-03-01T22:54:20.567Z,67.80
2023-03-01T22:56:49.612Z,67.40
2023-03-01T22:59:20.820Z,68.20
2023-03-01T23:01:49.197Z,68.00
2023-03-01T23:04:20.379Z,68.40
2023-03-01T23:06:53.769Z,67.70
2023-03-01T23:09:25.286Z,68.00
2023-03-01T23:11:54.159Z,68.30
2023-03-01T23:14:23.090Z,68.50
2023-03-01T23:16:52.538Z,68.50
2023-03-01T23:19:22.238Z,68.80
2023-03-01T23:21:50.994Z,68.70
2023-03-01T23:24:21.512Z,68.70
2023-03-01T23:26:53.382Z,68.80
2023-03-01T23:29:22.686Z,68.60
2023-03-01T23:31:51.038Z,68.80
2023-03-01T23:34:21.070Z,68.90
2023-03-01T23:36:49.415Z,69.00
2023-03-01T23:39:17.712Z,69.40
2023-03-01T23:41:46.070Z,69.20
2023-03-01T23:44:17.828Z,69.90
2023-03-01T23:46:47.398Z,69.80
2023-03-01T23:49:19.037Z,69.90
2023-03-01T23:51:49.496Z,70.10
2023-03-01T23:54:20.691Z,70.40
2023-03-01T23:56:49.032Z,70.60
2023-03-01T23:59:19.635Z,70.60
